sensor_id;sensor_type;location;lat;lon;timestamp;P1;durP1;ratioP1;P2;durP2;ratioP2
18336;SDS011;9294;51.106;7.028;2022-11-15T00:02:02;3.80;;;3.60;;
18336;SDS011;9294;51.106;7.028;2022-11-15T00:04:29;4.07;;;3.88;;
18336;SDS011;9294;51.106;7.028;2022-11-15T00:06:57;4.28;;;3.97;;
18336;SDS011;9294;51.106;7.028;2022-11-15T00:09:24;4.15;;;3.95;;
18336;SDS011;9294;51.106;7.028;2022-11-15T00:11:51;3.72;;;3.55;;
18336;SDS011;9294;51.106;7.028;2022-11-15T00:14:17;3.53;;;3.40;;
18336;SDS011;9294;51.106;7.028;2022-11-15T00:16:44;3.75;;;3.55;;
18336;SDS011;9294;51.106;7.028;2022-11-15T00:19:11;3.53;;;3.40;;
18336;SDS011;9294;51.106;7.028;2022-11-15T00:21:38;3.45;;;3.35;;
18336;SDS011;9294;51.106;7.028;2022-11-15T00:24:06;3.38;;;3.20;;
18336;SDS011;9294;51.106;7.028;2022-11-15T00:26:33;3.22;;;3.13;;
18336;SDS011;9294;51.106;7.028;2022-11-15T00:29:00;3.53;;;3.33;;
18336;SDS011;9294;51.106;7.028;2022-11-15T00:31:26;3.80;;;3.65;;
18336;SDS011;9294;51.106;7.028;2022-11-15T00:33:53;3.63;;;3.42;;
18336;SDS011;9294;51.106;7.028;2022-11-15T00:36:20;3.53;;;3.42;;
18336;SDS011;9294;51.106;7.028;2022-11-15T00:38:46;3.78;;;3.58;;
18336;SDS011;9294;51.106;7.028;2022-11-15T00:41:14;3.55;;;3.35;;
18336;SDS011;9294;51.106;7.028;2022-11-15T00:43:41;3.97;;;3.78;;
18336;SDS011;9294;51.106;7.028;2022-11-15T00:46:09;3.53;;;3.33;;
18336;SDS011;9294;51.106;7.028;2022-11-15T00:48:36;3.60;;;3.47;;
18336;SDS011;9294;51.106;7.028;2022-11-15T00:51:03;3.72;;;3.53;;
18336;SDS011;9294;51.106;7.028;2022-11-15T00:53:29;3.70;;;3.50;;
18336;SDS011;9294;51.106;7.028;2022-11-15T00:55:56;4.32;;;4.03;;
18336;SDS011;9294;51.106;7.028;2022-11-15T00:58:24;4.18;;;3.88;;
18336;SDS011;9294;51.106;7.028;2022-11-15T01:00:51;3.53;;;3.42;;
18336;SDS011;9294;51.106;7.028;2022-11-15T01:03:17;3.88;;;3.67;;
18336;SDS011;9294;51.106;7.028;2022-11-15T01:05:44;3.60;;;3.40;;
18336;SDS011;9294;51.106;7.028;2022-11-15T01:08:11;3.58;;;3.38;;
18336;SDS011;9294;51.106;7.028;2022-11-15T01:10:38;3.88;;;3.67;;
18336;SDS011;9294;51.106;7.028;2022-11-15T01:13:05;3.50;;;3.30;;
18336;SDS011;9294;51.106;7.028;2022-11-15T01:15:33;3.33;;;3.13;;
18336;SDS011;9294;51.106;7.028;2022-11-15T01:18:00;4.00;;;3.80;;
18336;SDS011;9294;51.106;7.028;2022-11-15T01:20:26;3.25;;;3.15;;
18336;SDS011;9294;51.106;7.028;2022-11-15T01:22:53;3.75;;;3.55;;
18336;SDS011;9294;51.106;7.028;2022-11-15T01:25:20;3.83;;;3.63;;
18336;SDS011;9294;51.106;7.028;2022-11-15T01:27:47;3.25;;;3.15;;
18336;SDS011;9294;51.106;7.028;2022-11-15T01:30:13;4.07;;;3.88;;
18336;SDS011;9294;51.106;7.028;2022-11-15T01:32:42;3.75;;;3.55;;
18336;SDS011;9294;51.106;7.028;2022-11-15T01:35:08;3.47;;;3.38;;
18336;SDS011;9294;51.106;7.028;2022-11-15T01:37:35;3.80;;;3.60;;
18336;SDS011;9294;51.106;7.028;2022-11-15T01:40:02;3.42;;;3.28;;
18336;SDS011;9294;51.106;7.028;2022-11-15T01:42:29;3.50;;;3.35;;
18336;SDS011;9294;51.106;7.028;2022-11-15T01:44:56;3.92;;;3.72;;
18336;SDS011;9294;51.106;7.028;2022-11-15T01:47:23;3.75;;;3.55;;
18336;SDS011;9294;51.106;7.028;2022-11-15T01:49:54;3.90;;;3.70;;
18336;SDS011;9294;51.106;7.028;2022-11-15T01:52:24;3.45;;;3.25;;
18336;SDS011;9294;51.106;7.028;2022-11-15T01:54:53;3.63;;;3.38;;
18336;SDS011;9294;51.106;7.028;2022-11-15T01:57:24;3.25;;;3.15;;
18336;SDS011;9294;51.106;7.028;2022-11-15T01:59:50;3.40;;;3.30;;
18336;SDS011;9294;51.106;7.028;2022-11-15T02:02:17;4.25;;;4.05;;
18336;SDS011;9294;51.106;7.028;2022-11-15T02:04:45;3.30;;;3.20;;
18336;SDS011;9294;51.106;7.028;2022-11-15T02:07:15;4.35;;;4.00;;
18336;SDS011;9294;51.106;7.028;2022-11-15T02:09:44;3.60;;;3.40;;
18336;SDS011;9294;51.106;7.028;2022-11-15T02:12:11;3.53;;;3.33;;
18336;SDS011;9294;51.106;7.028;2022-11-15T02:14:40;2.90;;;2.80;;
18336;SDS011;9294;51.106;7.028;2022-11-15T02:17:14;3.10;;;3.00;;
18336;SDS011;9294;51.106;7.028;2022-11-15T02:23:07;4.00;;;3.80;;
18336;SDS011;9294;51.106;7.028;2022-11-15T02:25:46;3.72;;;3.53;;
18336;SDS011;9294;51.106;7.028;2022-11-15T02:28:37;3.78;;;3.58;;
18336;SDS011;9294;51.106;7.028;2022-11-15T02:31:13;3.70;;;3.50;;
18336;SDS011;9294;51.106;7.028;2022-11-15T02:33:50;3.13;;;3.03;;
18336;SDS011;9294;51.106;7.028;2022-11-15T02:36:25;2.80;;;2.70;;
18336;SDS011;9294;51.106;7.028;2022-11-15T02:39:00;3.30;;;3.20;;
18336;SDS011;9294;51.106;7.028;2022-11-15T02:41:35;3.15;;;3.05;;
18336;SDS011;9294;51.106;7.028;2022-11-15T02:44:10;3.05;;;2.95;;
18336;SDS011;9294;51.106;7.028;2022-11-15T02:46:41;3.25;;;3.15;;
18336;SDS011;9294;51.106;7.028;2022-11-15T02:49:32;3.38;;;3.17;;
18336;SDS011;9294;51.106;7.028;2022-11-15T02:52:00;3.33;;;3.22;;
18336;SDS011;9294;51.106;7.028;2022-11-15T02:54:28;3.38;;;3.28;;
18336;SDS011;9294;51.106;7.028;2022-11-15T02:56:59;3.90;;;3.67;;
18336;SDS011;9294;51.106;7.028;2022-11-15T03:02:33;3.88;;;3.67;;
18336;SDS011;9294;51.106;7.028;2022-11-15T03:05:23;3.45;;;3.25;;
18336;SDS011;9294;51.106;7.028;2022-11-15T03:08:00;3.25;;;3.13;;
18336;SDS011;9294;51.106;7.028;2022-11-15T03:10:36;3.70;;;3.50;;
18336;SDS011;9294;51.106;7.028;2022-11-15T03:13:11;3.40;;;3.25;;
18336;SDS011;9294;51.106;7.028;2022-11-15T03:15:43;3.30;;;3.20;;
18336;SDS011;9294;51.106;7.028;2022-11-15T03:18:19;3.35;;;3.15;;
18336;SDS011;9294;51.106;7.028;2022-11-15T03:20:50;3.33;;;3.22;;
18336;SDS011;9294;51.106;7.028;2022-11-15T03:23:18;3.80;;;3.60;;
18336;SDS011;9294;51.106;7.028;2022-11-15T03:25:45;3.15;;;3.05;;
18336;SDS011;9294;51.106;7.028;2022-11-15T03:28:16;3.47;;;3.28;;
18336;SDS011;9294;51.106;7.028;2022-11-15T03:30:47;3.35;;;3.25;;
18336;SDS011;9294;51.106;7.028;2022-11-15T03:33:15;3.00;;;2.90;;
18336;SDS011;9294;51.106;7.028;2022-11-15T03:35:45;3.20;;;3.00;;
18336;SDS011;9294;51.106;7.028;2022-11-15T03:38:14;2.90;;;2.80;;
18336;SDS011;9294;51.106;7.028;2022-11-15T03:40:47;3.25;;;3.05;;
18336;SDS011;9294;51.106;7.028;2022-11-15T03:43:21;2.75;;;2.65;;
18336;SDS011;9294;51.106;7.028;2022-11-15T03:45:54;3.55;;;3.38;;
18336;SDS011;9294;51.106;7.028;2022-11-15T03:48:24;3.67;;;3.53;;
18336;SDS011;9294;51.106;7.028;2022-11-15T03:50:54;3.17;;;3.08;;
18336;SDS011;9294;51.106;7.028;2022-11-15T03:53:22;3.08;;;2.97;;
18336;SDS011;9294;51.106;7.028;2022-11-15T03:55:48;3.50;;;3.30;;
18336;SDS011;9294;51.106;7.028;2022-11-15T03:58:15;3.45;;;3.25;;
18336;SDS011;9294;51.106;7.028;2022-11-15T04:00:42;3.10;;;3.00;;
18336;SDS011;9294;51.106;7.028;2022-11-15T04:03:08;3.22;;;3.05;;
18336;SDS011;9294;51.106;7.028;2022-11-15T04:05:35;3.05;;;2.95;;
18336;SDS011;9294;51.106;7.028;2022-11-15T04:08:03;2.70;;;2.60;;
18336;SDS011;9294;51.106;7.028;2022-11-15T04:10:30;2.97;;;2.88;;
18336;SDS011;9294;51.106;7.028;2022-11-15T04:12:57;3.30;;;3.20;;
18336;SDS011;9294;51.106;7.028;2022-11-15T04:15:23;3.05;;;2.95;;
18336;SDS011;9294;51.106;7.028;2022-11-15T04:17:51;3.25;;;3.05;;
18336;SDS011;9294;51.106;7.028;2022-11-15T04:20:19;3.33;;;3.13;;
18336;SDS011;9294;51.106;7.028;2022-11-15T04:23:18;2.75;;;2.65;;
18336;SDS011;9294;51.106;7.028;2022-11-15T04:26:05;3.08;;;2.97;;
18336;SDS011;9294;51.106;7.028;2022-11-15T04:28:33;3.15;;;2.95;;
18336;SDS011;9294;51.106;7.028;2022-11-15T04:30:59;3.30;;;3.10;;
18336;SDS011;9294;51.106;7.028;2022-11-15T04:33:26;3.00;;;2.90;;
18336;SDS011;9294;51.106;7.028;2022-11-15T04:35:53;3.08;;;2.90;;
18336;SDS011;9294;51.106;7.028;2022-11-15T04:38:35;3.83;;;3.63;;
18336;SDS011;9294;51.106;7.028;2022-11-15T04:41:02;3.13;;;3.03;;
18336;SDS011;9294;51.106;7.028;2022-11-15T04:43:29;3.08;;;2.97;;
18336;SDS011;9294;51.106;7.028;2022-11-15T04:45:56;3.20;;;3.00;;
18336;SDS011;9294;51.106;7.028;2022-11-15T04:48:22;3.33;;;3.13;;
18336;SDS011;9294;51.106;7.028;2022-11-15T04:50:49;3.25;;;3.15;;
18336;SDS011;9294;51.106;7.028;2022-11-15T04:53:16;3.15;;;3.05;;
18336;SDS011;9294;51.106;7.028;2022-11-15T04:55:45;3.20;;;3.10;;
18336;SDS011;9294;51.106;7.028;2022-11-15T04:58:12;3.15;;;3.05;;
18336;SDS011;9294;51.106;7.028;2022-11-15T05:00:39;3.08;;;2.97;;
18336;SDS011;9294;51.106;7.028;2022-11-15T05:03:05;3.28;;;3.08;;
18336;SDS011;9294;51.106;7.028;2022-11-15T05:05:50;2.95;;;2.85;;
18336;SDS011;9294;51.106;7.028;2022-11-15T05:08:16;3.05;;;2.90;;
18336;SDS011;9294;51.106;7.028;2022-11-15T05:10:44;2.75;;;2.65;;
18336;SDS011;9294;51.106;7.028;2022-11-15T05:13:11;3.28;;;3.08;;
18336;SDS011;9294;51.106;7.028;2022-11-15T05:15:38;3.05;;;2.95;;
18336;SDS011;9294;51.106;7.028;2022-11-15T05:18:04;2.90;;;2.80;;
18336;SDS011;9294;51.106;7.028;2022-11-15T05:20:31;2.90;;;2.80;;
18336;SDS011;9294;51.106;7.028;2022-11-15T05:22:58;3.03;;;2.92;;
18336;SDS011;9294;51.106;7.028;2022-11-15T05:25:25;2.85;;;2.75;;
18336;SDS011;9294;51.106;7.028;2022-11-15T05:27:53;2.80;;;2.70;;
18336;SDS011;9294;51.106;7.028;2022-11-15T05:30:20;2.55;;;2.45;;
18336;SDS011;9294;51.106;7.028;2022-11-15T05:32:46;2.90;;;2.80;;
18336;SDS011;9294;51.106;7.028;2022-11-15T05:35:15;2.40;;;2.40;;
18336;SDS011;9294;51.106;7.028;2022-11-15T05:37:46;2.42;;;2.33;;
18336;SDS011;9294;51.106;7.028;2022-11-15T05:40:12;2.92;;;2.83;;
18336;SDS011;9294;51.106;7.028;2022-11-15T05:42:39;2.70;;;2.60;;
18336;SDS011;9294;51.106;7.028;2022-11-15T05:45:07;2.55;;;2.45;;
18336;SDS011;9294;51.106;7.028;2022-11-15T05:47:35;2.90;;;2.80;;
18336;SDS011;9294;51.106;7.028;2022-11-15T05:50:05;2.72;;;2.63;;
18336;SDS011;9294;51.106;7.028;2022-11-15T05:52:33;2.55;;;2.45;;
18336;SDS011;9294;51.106;7.028;2022-11-15T05:55:02;2.55;;;2.45;;
18336;SDS011;9294;51.106;7.028;2022-11-15T05:57:31;3.05;;;2.95;;
18336;SDS011;9294;51.106;7.028;2022-11-15T05:59:58;2.50;;;2.40;;
18336;SDS011;9294;51.106;7.028;2022-11-15T06:02:26;2.85;;;2.75;;
18336;SDS011;9294;51.106;7.028;2022-11-15T06:04:52;2.80;;;2.70;;
18336;SDS011;9294;51.106;7.028;2022-11-15T06:07:19;2.83;;;2.72;;
18336;SDS011;9294;51.106;7.028;2022-11-15T06:09:46;3.10;;;3.00;;
18336;SDS011;9294;51.106;7.028;2022-11-15T06:12:12;2.70;;;2.60;;
18336;SDS011;9294;51.106;7.028;2022-11-15T06:14:39;2.40;;;2.40;;
18336;SDS011;9294;51.106;7.028;2022-11-15T06:17:06;3.10;;;3.00;;
18336;SDS011;9294;51.106;7.028;2022-11-15T06:19:34;2.70;;;2.60;;
18336;SDS011;9294;51.106;7.028;2022-11-15T06:22:01;2.75;;;2.65;;
18336;SDS011;9294;51.106;7.028;2022-11-15T06:24:28;2.50;;;2.42;;
18336;SDS011;9294;51.106;7.028;2022-11-15T06:26:54;2.88;;;2.78;;
18336;SDS011;9294;51.106;7.028;2022-11-15T06:29:22;2.30;;;2.20;;
18336;SDS011;9294;51.106;7.028;2022-11-15T06:31:49;2.88;;;2.78;;
18336;SDS011;9294;51.106;7.028;2022-11-15T06:34:15;2.83;;;2.72;;
18336;SDS011;9294;51.106;7.028;2022-11-15T06:36:43;2.92;;;2.83;;
18336;SDS011;9294;51.106;7.028;2022-11-15T06:39:10;2.67;;;2.58;;
18336;SDS011;9294;51.106;7.028;2022-11-15T06:41:37;2.70;;;2.60;;
18336;SDS011;9294;51.106;7.028;2022-11-15T06:44:03;2.70;;;2.60;;
18336;SDS011;9294;51.106;7.028;2022-11-15T06:46:30;2.80;;;2.70;;
18336;SDS011;9294;51.106;7.028;2022-11-15T06:48:57;2.63;;;2.53;;
18336;SDS011;9294;51.106;7.028;2022-11-15T06:51:23;3.10;;;2.95;;
18336;SDS011;9294;51.106;7.028;2022-11-15T06:53:51;2.40;;;2.33;;
18336;SDS011;9294;51.106;7.028;2022-11-15T06:56:18;3.22;;;3.13;;
18336;SDS011;9294;51.106;7.028;2022-11-15T06:58:45;2.80;;;2.70;;
18336;SDS011;9294;51.106;7.028;2022-11-15T07:01:12;3.40;;;2.83;;
18336;SDS011;9294;51.106;7.028;2022-11-15T07:03:39;2.80;;;2.70;;
18336;SDS011;9294;51.106;7.028;2022-11-15T07:06:07;2.80;;;2.70;;
18336;SDS011;9294;51.106;7.028;2022-11-15T07:08:35;2.70;;;2.60;;
18336;SDS011;9294;51.106;7.028;2022-11-15T07:11:04;2.75;;;2.65;;
18336;SDS011;9294;51.106;7.028;2022-11-15T07:13:32;2.20;;;2.20;;
18336;SDS011;9294;51.106;7.028;2022-11-15T07:16:01;2.80;;;2.70;;
18336;SDS011;9294;51.106;7.028;2022-11-15T07:18:28;2.70;;;2.60;;
18336;SDS011;9294;51.106;7.028;2022-11-15T07:20:55;2.42;;;2.35;;
18336;SDS011;9294;51.106;7.028;2022-11-15T07:23:27;2.40;;;2.40;;
18336;SDS011;9294;51.106;7.028;2022-11-15T07:25:53;2.70;;;2.60;;
18336;SDS011;9294;51.106;7.028;2022-11-15T07:28:23;2.90;;;2.80;;
18336;SDS011;9294;51.106;7.028;2022-11-15T07:30:50;2.67;;;2.58;;
18336;SDS011;9294;51.106;7.028;2022-11-15T07:33:16;3.00;;;2.90;;
18336;SDS011;9294;51.106;7.028;2022-11-15T07:35:43;2.83;;;2.72;;
18336;SDS011;9294;51.106;7.028;2022-11-15T07:38:11;2.78;;;2.67;;
18336;SDS011;9294;51.106;7.028;2022-11-15T07:40:39;2.88;;;2.78;;
18336;SDS011;9294;51.106;7.028;2022-11-15T07:43:06;2.70;;;2.60;;
18336;SDS011;9294;51.106;7.028;2022-11-15T07:45:39;2.25;;;2.22;;
18336;SDS011;9294;51.106;7.028;2022-11-15T07:48:06;2.60;;;2.50;;
18336;SDS011;9294;51.106;7.028;2022-11-15T07:50:33;2.45;;;2.35;;
18336;SDS011;9294;51.106;7.028;2022-11-15T07:53:00;2.70;;;2.60;;
18336;SDS011;9294;51.106;7.028;2022-11-15T07:55:27;2.70;;;2.60;;
18336;SDS011;9294;51.106;7.028;2022-11-15T07:57:59;2.45;;;2.30;;
18336;SDS011;9294;51.106;7.028;2022-11-15T08:00:26;2.58;;;2.47;;
18336;SDS011;9294;51.106;7.028;2022-11-15T08:02:54;2.88;;;2.78;;
18336;SDS011;9294;51.106;7.028;2022-11-15T08:05:27;2.55;;;2.45;;
18336;SDS011;9294;51.106;7.028;2022-11-15T08:07:54;2.70;;;2.60;;
18336;SDS011;9294;51.106;7.028;2022-11-15T08:10:21;2.88;;;2.78;;
18336;SDS011;9294;51.106;7.028;2022-11-15T08:12:48;2.60;;;2.50;;
18336;SDS011;9294;51.106;7.028;2022-11-15T08:15:22;2.60;;;2.50;;
18336;SDS011;9294;51.106;7.028;2022-11-15T08:17:52;2.67;;;2.58;;
18336;SDS011;9294;51.106;7.028;2022-11-15T08:20:21;2.50;;;2.40;;
18336;SDS011;9294;51.106;7.028;2022-11-15T08:22:48;3.28;;;3.17;;
18336;SDS011;9294;51.106;7.028;2022-11-15T08:25:14;2.47;;;2.38;;
18336;SDS011;9294;51.106;7.028;2022-11-15T08:27:41;2.50;;;2.40;;
18336;SDS011;9294;51.106;7.028;2022-11-15T08:30:08;2.42;;;2.33;;
18336;SDS011;9294;51.106;7.028;2022-11-15T08:32:36;2.47;;;2.38;;
18336;SDS011;9294;51.106;7.028;2022-11-15T08:35:04;2.45;;;2.35;;
18336;SDS011;9294;51.106;7.028;2022-11-15T08:37:32;2.53;;;2.42;;
18336;SDS011;9294;51.106;7.028;2022-11-15T08:39:58;2.70;;;2.60;;
18336;SDS011;9294;51.106;7.028;2022-11-15T08:42:25;2.60;;;2.50;;
18336;SDS011;9294;51.106;7.028;2022-11-15T08:44:52;2.67;;;2.60;;
18336;SDS011;9294;51.106;7.028;2022-11-15T08:47:18;2.70;;;2.60;;
18336;SDS011;9294;51.106;7.028;2022-11-15T08:49:45;2.75;;;2.65;;
18336;SDS011;9294;51.106;7.028;2022-11-15T08:52:13;2.35;;;2.28;;
18336;SDS011;9294;51.106;7.028;2022-11-15T08:54:40;3.00;;;2.90;;
18336;SDS011;9294;51.106;7.028;2022-11-15T08:57:06;2.30;;;2.20;;
18336;SDS011;9294;51.106;7.028;2022-11-15T08:59:34;2.33;;;2.22;;
18336;SDS011;9294;51.106;7.028;2022-11-15T09:02:01;2.10;;;2.10;;
18336;SDS011;9294;51.106;7.028;2022-11-15T09:04:28;2.55;;;2.45;;
18336;SDS011;9294;51.106;7.028;2022-11-15T09:06:55;2.90;;;2.70;;
18336;SDS011;9294;51.106;7.028;2022-11-15T09:09:23;2.38;;;2.30;;
18336;SDS011;9294;51.106;7.028;2022-11-15T09:11:49;2.92;;;2.75;;
18336;SDS011;9294;51.106;7.028;2022-11-15T09:14:16;2.25;;;2.15;;
18336;SDS011;9294;51.106;7.028;2022-11-15T09:16:43;1.98;;;1.98;;
18336;SDS011;9294;51.106;7.028;2022-11-15T09:19:09;1.88;;;1.88;;
18336;SDS011;9294;51.106;7.028;2022-11-15T09:21:36;2.15;;;2.05;;
18336;SDS011;9294;51.106;7.028;2022-11-15T09:24:03;2.17;;;2.17;;
18336;SDS011;9294;51.106;7.028;2022-11-15T09:26:31;2.35;;;2.25;;
18336;SDS011;9294;51.106;7.028;2022-11-15T09:28:58;2.20;;;2.20;;
18336;SDS011;9294;51.106;7.028;2022-11-15T09:31:26;1.98;;;1.98;;
18336;SDS011;9294;51.106;7.028;2022-11-15T09:33:54;2.17;;;2.10;;
18336;SDS011;9294;51.106;7.028;2022-11-15T09:36:21;1.88;;;1.88;;
18336;SDS011;9294;51.106;7.028;2022-11-15T09:38:47;2.00;;;1.90;;
18336;SDS011;9294;51.106;7.028;2022-11-15T09:41:22;2.00;;;2.00;;
18336;SDS011;9294;51.106;7.028;2022-11-15T09:44:21;1.98;;;1.98;;
18336;SDS011;9294;51.106;7.028;2022-11-15T09:47:07;1.75;;;1.75;;
18336;SDS011;9294;51.106;7.028;2022-11-15T09:49:57;2.25;;;2.15;;
18336;SDS011;9294;51.106;7.028;2022-11-15T09:52:26;2.10;;;2.00;;
18336;SDS011;9294;51.106;7.028;2022-11-15T09:54:54;1.80;;;1.80;;
18336;SDS011;9294;51.106;7.028;2022-11-15T09:57:21;1.98;;;1.92;;
18336;SDS011;9294;51.106;7.028;2022-11-15T10:00:00;1.95;;;1.95;;
18336;SDS011;9294;51.106;7.028;2022-11-15T10:02:38;1.98;;;1.98;;
18336;SDS011;9294;51.106;7.028;2022-11-15T10:05:22;2.35;;;2.25;;
18336;SDS011;9294;51.106;7.028;2022-11-15T10:07:54;1.80;;;1.80;;
18336;SDS011;9294;51.106;7.028;2022-11-15T10:10:29;1.77;;;1.77;;
18336;SDS011;9294;51.106;7.028;2022-11-15T10:13:02;1.95;;;1.95;;
18336;SDS011;9294;51.106;7.028;2022-11-15T10:15:31;1.98;;;1.98;;
18336;SDS011;9294;51.106;7.028;2022-11-15T10:18:02;2.22;;;2.13;;
18336;SDS011;9294;51.106;7.028;2022-11-15T10:20:34;2.03;;;1.98;;
18336;SDS011;9294;51.106;7.028;2022-11-15T10:23:10;1.90;;;1.90;;
18336;SDS011;9294;51.106;7.028;2022-11-15T10:25:39;1.98;;;1.98;;
18336;SDS011;9294;51.106;7.028;2022-11-15T10:28:09;2.20;;;2.10;;
18336;SDS011;9294;51.106;7.028;2022-11-15T10:30:41;2.05;;;1.95;;
18336;SDS011;9294;51.106;7.028;2022-11-15T10:33:14;2.03;;;2.03;;
18336;SDS011;9294;51.106;7.028;2022-11-15T10:35:48;2.03;;;2.03;;
18336;SDS011;9294;51.106;7.028;2022-11-15T10:38:16;2.00;;;2.00;;
18336;SDS011;9294;51.106;7.028;2022-11-15T10:40:43;2.20;;;2.20;;
18336;SDS011;9294;51.106;7.028;2022-11-15T10:43:14;1.98;;;1.92;;
18336;SDS011;9294;51.106;7.028;2022-11-15T10:45:44;2.00;;;1.98;;
18336;SDS011;9294;51.106;7.028;2022-11-15T10:48:22;2.22;;;2.08;;
18336;SDS011;9294;51.106;7.028;2022-11-15T10:50:50;2.00;;;2.00;;
18336;SDS011;9294;51.106;7.028;2022-11-15T10:53:21;3.35;;;2.10;;
18336;SDS011;9294;51.106;7.028;2022-11-15T10:56:00;2.78;;;1.92;;
18336;SDS011;9294;51.106;7.028;2022-11-15T10:58:35;2.45;;;1.90;;
18336;SDS011;9294;51.106;7.028;2022-11-15T11:01:13;2.20;;;2.00;;
18336;SDS011;9294;51.106;7.028;2022-11-15T11:03:42;2.42;;;2.22;;
18336;SDS011;9294;51.106;7.028;2022-11-15T11:06:10;1.20;;;1.20;;
18336;SDS011;9294;51.106;7.028;2022-11-15T11:08:39;3.55;;;1.00;;
18336;SDS011;9294;51.106;7.028;2022-11-15T11:11:06;0.90;;;0.90;;
18336;SDS011;9294;51.106;7.028;2022-11-15T11:13:34;0.90;;;0.90;;
18336;SDS011;9294;51.106;7.028;2022-11-15T11:16:18;2.67;;;1.73;;
18336;SDS011;9294;51.106;7.028;2022-11-15T11:19:04;2.00;;;1.33;;
18336;SDS011;9294;51.106;7.028;2022-11-15T11:21:51;10.55;;;1.98;;
18336;SDS011;9294;51.106;7.028;2022-11-15T11:24:27;3.70;;;1.50;;
18336;SDS011;9294;51.106;7.028;2022-11-15T11:26:59;3.60;;;1.75;;
18336;SDS011;9294;51.106;7.028;2022-11-15T11:29:43;6.30;;;1.40;;
18336;SDS011;9294;51.106;7.028;2022-11-15T11:32:30;6.40;;;1.58;;
18336;SDS011;9294;51.106;7.028;2022-11-15T11:35:08;2.47;;;1.83;;
18336;SDS011;9294;51.106;7.028;2022-11-15T11:37:37;4.78;;;1.45;;
18336;SDS011;9294;51.106;7.028;2022-11-15T11:40:13;4.78;;;2.05;;
18336;SDS011;9294;51.106;7.028;2022-11-15T11:42:52;4.45;;;1.73;;
18336;SDS011;9294;51.106;7.028;2022-11-15T11:45:26;4.63;;;1.70;;
18336;SDS011;9294;51.106;7.028;2022-11-15T11:48:08;5.00;;;1.67;;
18336;SDS011;9294;51.106;7.028;2022-11-15T11:50:37;2.90;;;1.90;;
18336;SDS011;9294;51.106;7.028;2022-11-15T11:53:05;6.53;;;1.70;;
18336;SDS011;9294;51.106;7.028;2022-11-15T11:55:37;8.60;;;2.13;;
18336;SDS011;9294;51.106;7.028;2022-11-15T11:58:11;5.35;;;2.05;;
18336;SDS011;9294;51.106;7.028;2022-11-15T12:00:43;4.53;;;1.63;;
18336;SDS011;9294;51.106;7.028;2022-11-15T12:03:17;7.45;;;2.67;;
18336;SDS011;9294;51.106;7.028;2022-11-15T12:05:51;3.22;;;1.65;;
18336;SDS011;9294;51.106;7.028;2022-11-15T12:08:29;4.55;;;1.80;;
18336;SDS011;9294;51.106;7.028;2022-11-15T12:11:04;1.77;;;1.40;;
18336;SDS011;9294;51.106;7.028;2022-11-15T12:13:35;1.38;;;1.35;;
18336;SDS011;9294;51.106;7.028;2022-11-15T12:16:06;1.98;;;1.77;;
18336;SDS011;9294;51.106;7.028;2022-11-15T12:18:39;4.68;;;1.67;;
18336;SDS011;9294;51.106;7.028;2022-11-15T12:21:13;2.60;;;1.75;;
18336;SDS011;9294;51.106;7.028;2022-11-15T12:23:43;1.65;;;1.30;;
18336;SDS011;9294;51.106;7.028;2022-11-15T12:26:16;5.15;;;1.65;;
18336;SDS011;9294;51.106;7.028;2022-11-15T12:28:45;2.47;;;1.10;;
18336;SDS011;9294;51.106;7.028;2022-11-15T12:31:18;1.35;;;1.35;;
18336;SDS011;9294;51.106;7.028;2022-11-15T12:33:51;4.78;;;1.30;;
18336;SDS011;9294;51.106;7.028;2022-11-15T12:36:35;1.63;;;1.52;;
18336;SDS011;9294;51.106;7.028;2022-11-15T12:39:04;2.58;;;1.20;;
18336;SDS011;9294;51.106;7.028;2022-11-15T12:41:32;5.82;;;2.00;;
18336;SDS011;9294;51.106;7.028;2022-11-15T12:43:59;5.63;;;1.58;;
18336;SDS011;9294;51.106;7.028;2022-11-15T12:49:43;3.72;;;1.23;;
18336;SDS011;9294;51.106;7.028;2022-11-15T12:52:14;5.22;;;1.45;;
18336;SDS011;9294;51.106;7.028;2022-11-15T12:54:51;5.65;;;2.33;;
18336;SDS011;9294;51.106;7.028;2022-11-15T12:57:31;10.95;;;1.90;;
18336;SDS011;9294;51.106;7.028;2022-11-15T13:00:00;2.88;;;1.52;;
18336;SDS011;9294;51.106;7.028;2022-11-15T13:02:32;5.65;;;1.48;;
18336;SDS011;9294;51.106;7.028;2022-11-15T14:04:51;3.47;;;1.00;;
18336;SDS011;9294;51.106;7.028;2022-11-15T14:07:20;2.50;;;1.20;;
18336;SDS011;9294;51.106;7.028;2022-11-15T14:09:49;9.88;;;2.00;;
18336;SDS011;9294;51.106;7.028;2022-11-15T14:12:21;6.45;;;1.77;;
18336;SDS011;9294;51.106;7.028;2022-11-15T14:14:51;14.48;;;2.05;;
18336;SDS011;9294;51.106;7.028;2022-11-15T14:17:19;3.95;;;1.63;;
18336;SDS011;9294;51.106;7.028;2022-11-15T14:19:48;4.03;;;1.38;;
18336;SDS011;9294;51.106;7.028;2022-11-15T14:22:18;2.60;;;1.08;;
18336;SDS011;9294;51.106;7.028;2022-11-15T14:24:50;4.57;;;1.42;;
18336;SDS011;9294;51.106;7.028;2022-11-15T14:27:32;4.50;;;1.33;;
18336;SDS011;9294;51.106;7.028;2022-11-15T14:29:59;2.45;;;1.20;;
18336;SDS011;9294;51.106;7.028;2022-11-15T14:32:27;5.93;;;1.33;;
18336;SDS011;9294;51.106;7.028;2022-11-15T14:34:57;5.30;;;1.35;;
18336;SDS011;9294;51.106;7.028;2022-11-15T14:37:25;3.50;;;1.40;;
18336;SDS011;9294;51.106;7.028;2022-11-15T14:39:53;3.33;;;1.38;;
18336;SDS011;9294;51.106;7.028;2022-11-15T14:42:21;3.90;;;1.38;;
18336;SDS011;9294;51.106;7.028;2022-11-15T14:44:49;3.72;;;1.35;;
18336;SDS011;9294;51.106;7.028;2022-11-15T14:47:16;4.03;;;1.30;;
18336;SDS011;9294;51.106;7.028;2022-11-15T14:49:43;4.97;;;1.13;;
18336;SDS011;9294;51.106;7.028;2022-11-15T14:52:16;4.38;;;1.83;;
18336;SDS011;9294;51.106;7.028;2022-11-15T14:54:50;3.20;;;1.45;;
18336;SDS011;9294;51.106;7.028;2022-11-15T14:57:16;1.63;;;1.38;;
18336;SDS011;9294;51.106;7.028;2022-11-15T14:59:43;2.15;;;1.17;;
18336;SDS011;9294;51.106;7.028;2022-11-15T15:02:12;2.10;;;1.20;;
18336;SDS011;9294;51.106;7.028;2022-11-15T15:04:42;1.80;;;1.40;;
18336;SDS011;9294;51.106;7.028;2022-11-15T15:07:09;1.20;;;1.10;;
18336;SDS011;9294;51.106;7.028;2022-11-15T15:09:37;5.07;;;1.50;;
18336;SDS011;9294;51.106;7.028;2022-11-15T15:12:04;2.35;;;1.15;;
18336;SDS011;9294;51.106;7.028;2022-11-15T15:14:32;2.50;;;1.08;;
18336;SDS011;9294;51.106;7.028;2022-11-15T15:16:59;2.03;;;1.20;;
18336;SDS011;9294;51.106;7.028;2022-11-15T15:19:25;5.80;;;1.45;;
18336;SDS011;9294;51.106;7.028;2022-11-15T15:21:52;5.28;;;1.48;;
18336;SDS011;9294;51.106;7.028;2022-11-15T15:24:18;6.22;;;1.80;;
18336;SDS011;9294;51.106;7.028;2022-11-15T15:26:46;2.17;;;1.48;;
18336;SDS011;9294;51.106;7.028;2022-11-15T15:29:13;3.92;;;1.60;;
18336;SDS011;9294;51.106;7.028;2022-11-15T15:31:40;3.58;;;1.42;;
18336;SDS011;9294;51.106;7.028;2022-11-15T15:34:07;8.27;;;1.75;;
18336;SDS011;9294;51.106;7.028;2022-11-15T15:36:33;5.35;;;1.50;;
18336;SDS011;9294;51.106;7.028;2022-11-15T15:39:00;2.42;;;1.38;;
18336;SDS011;9294;51.106;7.028;2022-11-15T15:41:27;8.23;;;1.85;;
18336;SDS011;9294;51.106;7.028;2022-11-15T15:43:55;7.78;;;1.80;;
18336;SDS011;9294;51.106;7.028;2022-11-15T15:46:21;4.72;;;1.60;;
18336;SDS011;9294;51.106;7.028;2022-11-15T15:48:48;3.90;;;1.75;;
18336;SDS011;9294;51.106;7.028;2022-11-15T15:51:15;3.20;;;1.50;;
18336;SDS011;9294;51.106;7.028;2022-11-15T15:53:41;4.40;;;1.50;;
18336;SDS011;9294;51.106;7.028;2022-11-15T15:56:08;3.85;;;2.00;;
18336;SDS011;9294;51.106;7.028;2022-11-15T15:58:35;3.25;;;1.50;;
18336;SDS011;9294;51.106;7.028;2022-11-15T16:01:03;3.10;;;1.60;;
18336;SDS011;9294;51.106;7.028;2022-11-15T16:03:29;6.15;;;1.98;;
18336;SDS011;9294;51.106;7.028;2022-11-15T16:05:56;4.38;;;1.60;;
18336;SDS011;9294;51.106;7.028;2022-11-15T16:08:23;6.13;;;2.13;;
18336;SDS011;9294;51.106;7.028;2022-11-15T16:10:51;3.20;;;2.17;;
18336;SDS011;9294;51.106;7.028;2022-11-15T16:13:18;6.38;;;2.45;;
18336;SDS011;9294;51.106;7.028;2022-11-15T16:15:44;7.18;;;2.03;;
18336;SDS011;9294;51.106;7.028;2022-11-15T16:18:16;2.42;;;2.20;;
18336;SDS011;9294;51.106;7.028;2022-11-15T16:20:43;10.60;;;2.47;;
18336;SDS011;9294;51.106;7.028;2022-11-15T16:23:12;8.50;;;4.20;;
18336;SDS011;9294;51.106;7.028;2022-11-15T16:25:41;6.28;;;5.68;;